Time;durP1;ratioP1;P1;durP2;ratioP2;P2;SDS_P1;SDS_P2;PMS_P1;PMS_P2;Temp;Humidity;BMP_temperature;BMP_pressure;BME280_temperature;BME280_humidity;BME280_pressure;Samples;Min_cycle;Max_cycle;Signal;HPM_P1;HPM_P2
2023/01/17 00:01:32;;;;;;;14.43;13.63;;;4.00;90.40;;;;;;4997569;28;20194;-91
2023/01/17 00:12:13;;;;;;;14.60;13.80;;;4.00;90.60;;;;;;4997883;28;20245;-90
2023/01/17 00:14:39;;;;;;;14.93;13.93;;;4.00;90.60;;;;;;4996153;28;20220;-90
2023/01/17 00:17:05;;;;;;;15.63;14.33;;;3.90;90.70;;;;;;4997435;28;20200;-90
2023/01/17 01:33:37;;;;;;;23.83;22.37;;;3.80;92.40;;;;;;4996845;28;20212;-90
2023/01/17 01:36:08;;;;;;;22.77;21.27;;;3.80;92.40;;;;;;4994926;28;20184;-92
2023/01/17 01:38:53;;;;;;;23.90;22.40;;;3.80;92.40;;;;;;4993182;28;20239;-91
2023/01/17 01:41:19;;;;;;;23.93;22.53;;;3.80;92.50;;;;;;4995354;28;20188;-91
2023/01/17 01:43:46;;;;;;;24.93;23.43;;;3.80;92.50;;;;;;4994253;28;20204;-91
2023/01/17 01:46:22;;;;;;;26.30;24.60;;;3.70;92.50;;;;;;4994227;28;20205;-90
2023/01/17 01:49:02;;;;;;;26.07;24.43;;;3.70;92.60;;;;;;4995169;28;20195;-91
2023/01/17 01:51:57;;;;;;;28.10;26.40;;;3.70;92.70;;;;;;4994329;28;20261;-90
2023/01/17 01:54:28;;;;;;;30.33;28.30;;;3.70;92.80;;;;;;4994727;28;20224;-90
2023/01/17 01:56:59;;;;;;;30.70;28.60;;;3.70;92.90;;;;;;4994753;28;20215;-91
2023/01/17 01:59:25;;;;;;;32.27;29.87;;;3.70;93.00;;;;;;4994414;28;20181;-90
2023/01/17 02:01:54;;;;;;;31.00;29.00;;;3.70;93.10;;;;;;4994796;28;20206;-90
2023/01/17 02:04:21;;;;;;;31.43;29.47;;;3.60;93.10;;;;;;4996103;28;20196;-90
2023/01/17 02:07:17;;;;;;;31.97;30.03;;;3.60;93.30;;;;;;4993276;28;20216;-90
2023/01/17 02:09:43;;;;;;;33.10;30.90;;;3.60;93.40;;;;;;4995163;28;20170;-89
2023/01/17 02:12:09;;;;;;;34.53;32.43;;;3.60;93.40;;;;;;4995703;28;20274;-90
2023/01/17 02:14:35;;;;;;;36.13;33.60;;;3.60;93.40;;;;;;4994023;28;20200;-88
2023/01/17 02:17:34;;;;;;;35.93;33.70;;;3.60;93.50;;;;;;4994287;28;20178;-89
2023/01/17 02:20:39;;;;;;;35.70;33.47;;;3.60;93.50;;;;;;4993957;28;20645;-89
2023/01/17 02:23:27;;;;;;;35.13;32.73;;;3.60;93.60;;;;;;4994097;28;20221;-89
2023/01/17 02:26:01;;;;;;;36.30;33.73;;;3.60;93.60;;;;;;4994067;28;20637;-89
2023/01/17 02:28:41;;;;;;;34.53;32.20;;;3.70;93.70;;;;;;4993949;28;20252;-89
2023/01/17 02:31:30;;;;;;;36.10;33.80;;;3.70;93.60;;;;;;4994168;28;20228;-89
2023/01/17 02:34:05;;;;;;;39.23;36.57;;;3.70;93.70;;;;;;4994295;28;20274;-89
2023/01/17 02:36:35;;;;;;;39.10;36.70;;;3.60;93.80;;;;;;4993754;28;20176;-90
2023/01/17 02:39:31;;;;;;;39.87;37.27;;;3.60;93.90;;;;;;4994170;28;20251;-89
2023/01/17 02:42:02;;;;;;;39.27;36.53;;;3.60;94.00;;;;;;4991970;28;20215;-89
2023/01/17 02:44:28;;;;;;;39.90;37.40;;;3.60;94.00;;;;;;4993550;28;20202;-89
2023/01/17 02:46:55;;;;;;;41.80;39.00;;;3.60;94.10;;;;;;4993612;28;20677;-89
2023/01/17 02:49:26;;;;;;;42.13;39.43;;;3.60;94.10;;;;;;4993680;28;20182;-89
2023/01/17 02:52:21;;;;;;;44.50;41.50;;;3.60;94.20;;;;;;4993967;28;20177;-89
2023/01/17 02:55:06;;;;;;;46.03;42.70;;;3.50;94.20;;;;;;4993816;28;20260;-89
2023/01/17 02:57:56;;;;;;;46.17;43.07;;;3.50;94.30;;;;;;4993469;28;20266;-89
2023/01/17 03:00:30;;;;;;;48.30;45.10;;;3.50;94.40;;;;;;4993593;28;20170;-89
2023/01/17 03:03:12;;;;;;;46.20;42.70;;;3.50;94.50;;;;;;4993641;28;20194;-89
2023/01/17 03:06:03;;;;;;;46.33;43.23;;;3.60;94.60;;;;;;4995003;28;20200;-89
2023/01/17 03:08:30;;;;;;;46.87;43.67;;;3.60;94.70;;;;;;4993819;28;20216;-89
2023/01/17 03:10:56;;;;;;;45.83;42.63;;;3.60;94.70;;;;;;4993822;28;20663;-89
2023/01/17 03:13:22;;;;;;;47.07;43.53;;;3.60;94.70;;;;;;4994132;28;20195;-89
2023/01/17 03:15:48;;;;;;;48.43;44.60;;;3.70;94.80;;;;;;4993910;28;20719;-89
2023/01/17 03:18:15;;;;;;;49.97;46.17;;;3.70;94.80;;;;;;4996936;28;20209;-89
2023/01/17 03:20:41;;;;;;;48.63;45.07;;;3.70;94.80;;;;;;4997156;28;20181;-90
2023/01/17 03:23:06;;;;;;;51.77;47.73;;;3.80;94.80;;;;;;4997124;28;20210;-90
2023/01/17 03:25:32;;;;;;;49.90;46.13;;;3.80;94.70;;;;;;4997188;28;20198;-89
2023/01/17 03:27:58;;;;;;;47.73;44.13;;;3.80;94.70;;;;;;4996870;28;20618;-90
2023/01/17 03:30:23;;;;;;;49.37;45.40;;;3.80;94.70;;;;;;4997428;28;20187;-89
2023/01/17 03:32:49;;;;;;;50.03;46.13;;;3.80;94.60;;;;;;4997355;28;20226;-89
2023/01/17 03:35:15;;;;;;;52.33;48.10;;;3.80;94.60;;;;;;4997309;28;20182;-90
2023/01/17 03:37:41;;;;;;;48.73;45.03;;;3.80;94.60;;;;;;4997159;28;20178;-89
2023/01/17 03:40:07;;;;;;;49.77;45.73;;;3.90;94.60;;;;;;4997044;28;20178;-89
2023/01/17 03:42:33;;;;;;;46.20;42.60;;;3.90;94.50;;;;;;4996312;28;20170;-89
2023/01/17 03:44:59;;;;;;;46.67;43.17;;;3.90;94.40;;;;;;4996981;28;20668;-89
2023/01/17 03:47:24;;;;;;;47.00;43.50;;;3.90;94.40;;;;;;4997049;28;20232;-90
2023/01/17 03:49:50;;;;;;;48.10;44.20;;;3.90;94.40;;;;;;4997222;28;20185;-90
2023/01/17 03:52:16;;;;;;;48.53;44.73;;;3.90;94.40;;;;;;4996430;28;20192;-90
2023/01/17 03:54:42;;;;;;;50.57;46.67;;;3.90;94.40;;;;;;4996342;28;20199;-90
2023/01/17 03:57:07;;;;;;;50.37;46.47;;;3.80;94.50;;;;;;4997001;28;20189;-90
2023/01/17 03:59:33;;;;;;;49.83;45.93;;;3.90;94.50;;;;;;4996967;28;20266;-90
2023/01/17 04:01:59;;;;;;;49.63;45.87;;;3.90;94.50;;;;;;4996244;28;20185;-90
2023/01/17 04:04:24;;;;;;;47.33;43.73;;;3.90;94.60;;;;;;4996648;28;20215;-90
2023/01/17 04:06:50;;;;;;;43.27;40.20;;;3.90;94.70;;;;;;4996172;28;20603;-89
2023/01/17 04:09:15;;;;;;;43.53;40.13;;;3.80;94.60;;;;;;4996674;28;20201;-89
2023/01/17 04:11:41;;;;;;;43.73;40.73;;;3.80;94.60;;;;;;4996179;28;20182;-89
2023/01/17 04:14:06;;;;;;;42.70;39.80;;;3.70;94.50;;;;;;4996018;28;20696;-89
2023/01/17 04:16:32;;;;;;;40.27;37.57;;;3.50;94.20;;;;;;4995915;28;20182;-89
2023/01/17 04:18:58;;;;;;;38.00;35.53;;;3.40;94.10;;;;;;4996282;28;20214;-89
2023/01/17 04:21:24;;;;;;;39.43;36.67;;;3.30;94.10;;;;;;4996004;28;20294;-89
2023/01/17 04:23:49;;;;;;;38.07;35.57;;;3.30;94.00;;;;;;4995669;28;20221;-89
2023/01/17 04:26:15;;;;;;;31.63;29.53;;;3.30;94.00;;;;;;4996125;28;20213;-89
2023/01/17 04:28:40;;;;;;;32.80;30.73;;;3.10;93.90;;;;;;4995394;28;20278;-89
2023/01/17 04:31:06;;;;;;;31.77;29.73;;;3.00;93.80;;;;;;4995626;28;20244;-89
2023/01/17 04:33:32;;;;;;;31.23;29.13;;;3.00;93.60;;;;;;4995579;28;20202;-89
2023/01/17 04:35:57;;;;;;;29.87;27.87;;;3.00;93.60;;;;;;4995925;28;20186;-89
2023/01/17 04:38:23;;;;;;;33.27;31.07;;;3.00;93.60;;;;;;4995743;28;20183;-89
2023/01/17 04:40:50;;;;;;;34.83;32.47;;;3.00;93.60;;;;;;4995516;28;20182;-90
2023/01/17 04:43:16;;;;;;;37.40;34.70;;;3.00;93.60;;;;;;4995829;28;20206;-89
2023/01/17 04:45:41;;;;;;;38.33;35.73;;;3.00;93.70;;;;;;4995892;28;20222;-89
2023/01/17 04:48:11;;;;;;;36.80;34.17;;;3.10;93.70;;;;;;4995424;28;20549;-89
2023/01/17 04:50:37;;;;;;;39.87;37.07;;;3.00;93.80;;;;;;4995525;28;20254;-89
2023/01/17 04:53:02;;;;;;;38.17;35.57;;;3.10;94.00;;;;;;4996261;28;20204;-89
2023/01/17 04:55:28;;;;;;;38.37;35.60;;;3.10;94.10;;;;;;4995623;28;20225;-89
2023/01/17 04:57:53;;;;;;;41.67;38.67;;;3.10;94.20;;;;;;4995245;28;20183;-89
2023/01/17 05:00:19;;;;;;;34.57;32.13;;;3.10;94.30;;;;;;4995433;28;20182;-89
2023/01/17 05:02:45;;;;;;;41.03;37.63;;;3.10;94.40;;;;;;4995885;28;20189;-89
2023/01/17 05:05:12;;;;;;;40.53;37.63;;;3.20;94.40;;;;;;4995596;28;20182;-90
2023/01/17 05:07:37;;;;;;;40.90;38.07;;;3.20;94.50;;;;;;4995360;28;20182;-89
2023/01/17 05:10:03;;;;;;;44.20;41.00;;;3.20;94.60;;;;;;4995573;28;20533;-89
2023/01/17 05:12:29;;;;;;;46.87;43.33;;;3.30;94.70;;;;;;4995282;28;20186;-89
2023/01/17 05:14:54;;;;;;;45.40;42.17;;;3.30;94.70;;;;;;4995411;28;20198;-89
2023/01/17 05:17:20;;;;;;;44.10;41.03;;;3.40;94.70;;;;;;4994580;28;20178;-89
2023/01/17 05:19:45;;;;;;;43.53;40.53;;;3.40;94.70;;;;;;4994817;28;20253;-89
2023/01/17 05:22:15;;;;;;;43.53;40.63;;;3.40;94.70;;;;;;4994567;28;20187;-89
2023/01/17 05:24:41;;;;;;;36.63;34.47;;;3.40;94.60;;;;;;4994059;28;20213;-89
2023/01/17 05:27:07;;;;;;;32.87;30.40;;;3.40;94.50;;;;;;4993900;28;20292;-89
2023/01/17 05:29:32;;;;;;;29.20;27.40;;;3.30;94.20;;;;;;4993868;28;20220;-89
2023/01/17 05:31:58;;;;;;;30.80;28.70;;;3.30;93.90;;;;;;4993949;28;20584;-89
2023/01/17 05:34:24;;;;;;;29.50;27.53;;;3.30;93.80;;;;;;4993821;28;20635;-89
2023/01/17 05:36:49;;;;;;;30.00;27.90;;;3.30;93.80;;;;;;4993452;28;20187;-89
2023/01/17 05:39:15;;;;;;;29.90;28.10;;;3.30;93.80;;;;;;4993007;28;20642;-89
2023/01/17 05:41:40;;;;;;;29.27;27.37;;;3.20;93.70;;;;;;4993791;28;20629;-88
2023/01/17 05:44:06;;;;;;;29.00;26.90;;;3.20;93.50;;;;;;4993552;28;20197;-89
2023/01/17 05:46:31;;;;;;;26.57;24.60;;;3.20;93.50;;;;;;4993477;28;20209;-89
2023/01/17 05:48:57;;;;;;;27.80;25.53;;;3.20;93.40;;;;;;4993358;28;20193;-89
2023/01/17 05:51:23;;;;;;;26.87;24.73;;;3.20;93.40;;;;;;4993262;28;20182;-89
2023/01/17 05:53:49;;;;;;;25.97;24.07;;;3.20;93.40;;;;;;4993280;28;20224;-88
2023/01/17 05:56:14;;;;;;;26.97;25.17;;;3.20;93.50;;;;;;4993268;28;20193;-90
2023/01/17 05:58:40;;;;;;;27.20;25.50;;;3.20;93.40;;;;;;4993715;28;20723;-89
2023/01/17 06:01:05;;;;;;;26.20;24.40;;;3.10;93.30;;;;;;4993461;28;20186;-89
2023/01/17 06:03:31;;;;;;;28.10;26.20;;;3.10;93.20;;;;;;4993247;28;20289;-89
2023/01/17 06:05:56;;;;;;;30.00;27.70;;;3.10;93.20;;;;;;4993149;28;20224;-89
2023/01/17 06:08:22;;;;;;;28.97;26.83;;;3.20;93.30;;;;;;4993272;28;20188;-89
2023/01/17 06:10:48;;;;;;;26.73;24.67;;;3.20;93.20;;;;;;4993184;28;20190;-89
2023/01/17 06:13:19;;;;;;;26.90;25.07;;;3.10;93.00;;;;;;4993063;28;20248;-89
2023/01/17 06:15:45;;;;;;;25.57;23.60;;;2.90;93.00;;;;;;4993184;28;20556;-90
2023/01/17 06:18:12;;;;;;;24.63;22.87;;;2.90;92.80;;;;;;4992919;28;20228;-89
2023/01/17 06:20:38;;;;;;;25.97;23.20;;;2.90;92.70;;;;;;4992992;28;20207;-90
2023/01/17 06:23:06;;;;;;;23.10;21.40;;;2.90;92.80;;;;;;4992824;28;20241;-89
2023/01/17 06:25:40;;;;;;;19.20;18.00;;;3.00;92.60;;;;;;4992965;28;20209;-89
2023/01/17 06:28:06;;;;;;;21.60;19.57;;;3.00;92.40;;;;;;4992928;28;20174;-89
2023/01/17 06:30:32;;;;;;;22.47;20.43;;;3.10;92.30;;;;;;4992968;28;20178;-89
2023/01/17 06:32:58;;;;;;;22.50;20.30;;;3.00;92.30;;;;;;4992863;28;20668;-90
2023/01/17 06:35:23;;;;;;;22.77;20.53;;;3.10;92.40;;;;;;4992748;28;20185;-89
2023/01/17 06:37:54;;;;;;;23.07;21.40;;;3.10;92.40;;;;;;4993328;28;20260;-90
2023/01/17 06:40:27;;;;;;;20.90;19.20;;;3.10;92.50;;;;;;4992731;28;20221;-90
2023/01/17 06:42:53;;;;;;;21.20;19.40;;;3.10;92.30;;;;;;4992657;28;20198;-89
2023/01/17 06:45:19;;;;;;;20.50;18.90;;;3.10;92.20;;;;;;4992534;28;20184;-89
2023/01/17 06:47:45;;;;;;;21.30;19.60;;;3.10;92.20;;;;;;4992875;28;20183;-90
2023/01/17 06:50:12;;;;;;;18.80;16.83;;;3.10;92.00;;;;;;4992792;28;20182;-89
2023/01/17 06:52:39;;;;;;;17.60;16.13;;;3.10;91.60;;;;;;4996578;28;20260;-89
2023/01/17 06:55:06;;;;;;;19.23;17.07;;;3.00;91.40;;;;;;4996610;28;20177;-89
2023/01/17 06:57:32;;;;;;;15.97;14.53;;;3.10;91.20;;;;;;4996415;28;20201;-90
2023/01/17 06:59:57;;;;;;;16.93;15.13;;;3.10;90.90;;;;;;4997166;28;20276;-89
2023/01/17 07:02:23;;;;;;;18.83;16.07;;;3.10;90.60;;;;;;4996290;28;20611;-89
2023/01/17 07:04:48;;;;;;;21.27;14.73;;;3.20;90.70;;;;;;4996359;28;20805;-89
2023/01/17 07:07:14;;;;;;;21.13;14.73;;;3.20;90.60;;;;;;4996274;28;20213;-89
2023/01/17 07:09:40;;;;;;;16.07;12.80;;;3.20;90.40;;;;;;4996367;28;20278;-89
2023/01/17 07:12:06;;;;;;;15.00;13.60;;;3.30;89.70;;;;;;4996277;28;20178;-89
2023/01/17 07:14:31;;;;;;;15.13;13.43;;;3.30;89.70;;;;;;4996200;28;20201;-89
2023/01/17 07:16:57;;;;;;;13.33;12.10;;;3.30;89.70;;;;;;4996218;28;20281;-89
2023/01/17 07:19:23;;;;;;;12.83;11.67;;;3.40;89.20;;;;;;4995939;28;20606;-89
2023/01/17 07:21:53;;;;;;;13.57;12.17;;;3.40;89.40;;;;;;4996622;28;20197;-89
2023/01/17 07:24:19;;;;;;;23.77;12.00;;;3.30;88.90;;;;;;4995856;28;20724;-89
2023/01/17 07:26:51;;;;;;;13.17;11.40;;;3.30;88.80;;;;;;4995903;28;20214;-89
2023/01/17 07:29:17;;;;;;;11.47;10.67;;;3.40;88.20;;;;;;4995856;28;20237;-90
2023/01/17 07:31:43;;;;;;;12.20;11.13;;;3.30;87.70;;;;;;4995987;28;20178;-89
2023/01/17 07:34:08;;;;;;;15.50;11.23;;;3.40;87.40;;;;;;4995846;28;20254;-89
2023/01/17 07:36:34;;;;;;;12.70;11.33;;;3.30;87.10;;;;;;4995834;28;20274;-89
2023/01/17 07:38:59;;;;;;;15.13;11.17;;;3.30;87.60;;;;;;4995721;28;20652;-89
2023/01/17 07:41:25;;;;;;;14.90;13.33;;;3.30;87.80;;;;;;4995724;28;20220;-89
2023/01/17 07:43:51;;;;;;;16.87;15.23;;;3.30;89.60;;;;;;4995632;28;20201;-89
2023/01/17 07:46:16;;;;;;;16.80;15.27;;;3.20;90.20;;;;;;4996457;28;20202;-89
2023/01/17 07:48:42;;;;;;;24.23;16.50;;;3.10;90.80;;;;;;4995616;28;20200;-89
2023/01/17 07:51:08;;;;;;;19.27;15.50;;;3.00;91.10;;;;;;4995659;28;20648;-89
2023/01/17 07:53:35;;;;;;;16.30;13.67;;;3.00;91.00;;;;;;4995496;28;20664;-89
2023/01/17 07:56:03;;;;;;;17.67;14.53;;;2.90;90.80;;;;;;4995450;28;20273;-89
2023/01/17 07:58:28;;;;;;;15.17;13.63;;;2.90;90.70;;;;;;4995451;28;20739;-89
2023/01/17 08:01:00;;;;;;;15.80;14.50;;;2.90;90.50;;;;;;4995473;28;20272;-89
2023/01/17 08:03:30;;;;;;;15.93;14.40;;;2.80;90.60;;;;;;4994258;28;20676;-90
2023/01/17 08:05:56;;;;;;;15.83;14.40;;;2.80;90.60;;;;;;4996080;28;20212;-90
2023/01/17 08:08:22;;;;;;;16.20;15.00;;;2.80;90.40;;;;;;4995282;28;20174;-90
2023/01/17 08:10:48;;;;;;;17.23;15.27;;;2.70;90.40;;;;;;4995459;28;20174;-90
2023/01/17 08:13:14;;;;;;;15.00;13.90;;;2.80;90.40;;;;;;4995056;28;20680;-90
2023/01/17 08:15:39;;;;;;;16.97;15.37;;;2.80;90.50;;;;;;4995148;28;20186;-89
2023/01/17 08:18:05;;;;;;;16.07;14.47;;;2.80;90.50;;;;;;4995219;28;20591;-90
2023/01/17 08:20:30;;;;;;;17.73;14.27;;;2.80;90.40;;;;;;4995224;28;20652;-90
2023/01/17 08:22:56;;;;;;;15.97;14.50;;;2.80;90.40;;;;;;4994823;28;20212;-89
2023/01/17 08:25:23;;;;;;;15.17;13.90;;;2.80;90.40;;;;;;4994865;28;20182;-90
2023/01/17 08:27:49;;;;;;;15.70;14.20;;;2.80;90.40;;;;;;4995222;28;20174;-89
2023/01/17 08:30:15;;;;;;;17.50;15.93;;;2.80;90.60;;;;;;4995415;28;20324;-90
2023/01/17 08:32:40;;;;;;;17.97;16.47;;;2.90;90.80;;;;;;4995507;28;20669;-90
2023/01/17 08:35:07;;;;;;;18.43;16.87;;;2.90;90.90;;;;;;4994865;28;20269;-90
2023/01/17 08:37:33;;;;;;;17.73;15.93;;;3.00;91.10;;;;;;4994862;28;20178;-90
2023/01/17 08:39:59;;;;;;;15.37;13.00;;;3.00;91.30;;;;;;4994670;28;20186;-89
2023/01/17 08:42:24;;;;;;;13.17;11.77;;;2.80;90.50;;;;;;4995063;28;20185;-89
2023/01/17 08:44:50;;;;;;;14.30;12.13;;;2.80;89.80;;;;;;4994417;28;20269;-90
2023/01/17 08:47:15;;;;;;;16.63;13.27;;;2.90;89.60;;;;;;4994364;28;20626;-89
2023/01/17 08:49:42;;;;;;;18.83;14.80;;;3.00;89.90;;;;;;4994573;28;20228;-89
2023/01/17 08:52:08;;;;;;;18.23;15.80;;;3.10;90.30;;;;;;4994508;28;20177;-89
2023/01/17 08:54:33;;;;;;;18.93;15.03;;;3.20;90.60;;;;;;4994388;28;20198;-89
2023/01/17 08:56:59;;;;;;;15.40;14.23;;;3.20;90.90;;;;;;4994299;28;20531;-89
2023/01/17 08:59:25;;;;;;;19.33;15.40;;;3.20;91.00;;;;;;4994344;28;20210;-89
2023/01/17 09:01:51;;;;;;;15.97;14.60;;;3.30;91.00;;;;;;4994309;28;20727;-89
2023/01/17 09:04:17;;;;;;;15.97;14.40;;;3.40;91.00;;;;;;4994186;28;20751;-88
2023/01/17 09:06:45;;;;;;;17.13;15.43;;;3.50;90.70;;;;;;4994200;28;20298;-90
2023/01/17 09:09:10;;;;;;;19.03;15.50;;;3.40;90.60;;;;;;4994255;28;20627;-90
2023/01/17 09:11:37;;;;;;;16.77;15.37;;;3.30;90.60;;;;;;4994125;28;20209;-89
2023/01/17 09:14:03;;;;;;;16.17;14.93;;;3.30;91.00;;;;;;4993907;28;20202;-90
2023/01/17 09:16:28;;;;;;;14.53;13.17;;;3.30;91.00;;;;;;4994257;28;20528;-89
2023/01/17 09:18:55;;;;;;;12.87;12.07;;;3.10;90.20;;;;;;4995318;28;20178;-89
2023/01/17 09:21:21;;;;;;;15.20;13.87;;;2.90;89.80;;;;;;4994988;28;20201;-89
2023/01/17 09:23:46;;;;;;;16.17;14.50;;;2.80;90.40;;;;;;4993962;28;20699;-90
2023/01/17 09:26:27;;;;;;;16.00;14.70;;;2.80;90.80;;;;;;4994247;28;20206;-90
2023/01/17 09:28:53;;;;;;;16.30;14.77;;;2.70;91.00;;;;;;4993870;28;20558;-90
2023/01/17 09:31:20;;;;;;;16.90;15.23;;;2.60;91.10;;;;;;4993704;28;20669;-89
2023/01/17 09:33:47;;;;;;;17.80;16.23;;;2.60;91.20;;;;;;4993852;28;20199;-90
2023/01/17 09:36:15;;;;;;;15.77;14.33;;;2.50;91.30;;;;;;4993710;28;20185;-91
2023/01/17 09:38:41;;;;;;;15.20;13.90;;;2.50;91.20;;;;;;4993638;28;20189;-90
2023/01/17 09:41:30;;;;;;;14.47;13.40;;;2.50;91.00;;;;;;4993718;28;20236;-89
2023/01/17 09:44:20;;;;;;;16.97;12.70;;;2.50;90.90;;;;;;4993662;28;20734;-89
2023/01/17 09:46:52;;;;;;;13.47;12.23;;;2.40;90.50;;;;;;4993300;28;20276;-89
2023/01/17 09:49:40;;;;;;;14.13;12.77;;;2.50;90.30;;;;;;4993341;28;20201;-90
2023/01/17 09:52:09;;;;;;;24.63;12.93;;;2.60;90.00;;;;;;4993325;28;20178;-90
2023/01/17 09:54:39;;;;;;;17.63;14.13;;;2.60;90.20;;;;;;4993477;28;20208;-90
2023/01/17 09:57:31;;;;;;;14.57;13.13;;;2.70;90.40;;;;;;4993320;28;20652;-90
2023/01/17 10:00:26;;;;;;;13.77;12.57;;;2.70;90.20;;;;;;4993181;28;20170;-90
2023/01/17 10:03:36;;;;;;;13.17;12.20;;;2.80;90.00;;;;;;4993080;28;20304;-90
2023/01/17 10:06:32;;;;;;;12.97;11.77;;;2.90;89.80;;;;;;4963630;28;20214;-89
2023/01/17 10:09:20;;;;;;;11.27;10.47;;;3.20;89.50;;;;;;4993051;28;20209;-90
2023/01/17 10:12:15;;;;;;;12.50;9.13;;;3.30;88.80;;;;;;4992996;28;20166;-91
2023/01/17 10:14:49;;;;;;;11.30;10.37;;;3.50;88.20;;;;;;4992862;28;20668;-90
2023/01/17 10:17:30;;;;;;;15.83;10.00;;;3.50;87.40;;;;;;4993134;28;20185;-89
2023/01/17 10:20:06;;;;;;;11.10;10.10;;;3.60;87.00;;;;;;4992932;28;20179;-90
2023/01/17 10:22:53;;;;;;;11.93;11.03;;;3.40;85.90;;;;;;4992620;28;20262;-90
2023/01/17 10:25:37;;;;;;;14.43;11.23;;;3.30;86.10;;;;;;4992485;28;20217;-89
2023/01/17 10:28:16;;;;;;;11.60;10.43;;;3.50;86.20;;;;;;4993055;28;20190;-90
2023/01/17 10:30:49;;;;;;;10.80;9.20;;;3.50;85.70;;;;;;4992840;28;20699;-90
2023/01/17 10:33:26;;;;;;;10.87;9.77;;;3.60;86.00;;;;;;4992670;28;20225;-91
2023/01/17 10:35:58;;;;;;;13.73;9.30;;;3.60;85.40;;;;;;4992834;28;20174;-89
2023/01/17 10:38:31;;;;;;;21.47;9.93;;;3.60;85.60;;;;;;4992680;28;20270;-90
2023/01/17 10:41:06;;;;;;;11.70;10.77;;;3.80;85.40;;;;;;4992688;28;20266;-90
2023/01/17 10:43:46;;;;;;;12.27;11.37;;;3.60;84.20;;;;;;4992567;28;20676;-89
2023/01/17 10:46:20;;;;;;;12.30;11.50;;;3.50;84.50;;;;;;4992650;28;20226;-90
2023/01/17 10:48:49;;;;;;;12.77;11.47;;;3.20;86.30;;;;;;4992709;28;20172;-90
2023/01/17 10:51:42;;;;;;;12.27;11.37;;;2.90;87.40;;;;;;4992875;28;20181;-89
2023/01/17 10:54:20;;;;;;;13.03;11.87;;;2.50;88.40;;;;;;4953934;28;20206;-91
2023/01/17 10:56:47;;;;;;;14.53;13.20;;;2.60;89.40;;;;;;4992835;28;20189;-90
2023/01/17 10:59:25;;;;;;;13.47;12.47;;;2.50;89.40;;;;;;4992866;28;20175;-91
2023/01/17 11:01:51;;;;;;;11.77;11.07;;;2.30;89.90;;;;;;4993032;28;20174;-90
2023/01/17 11:04:20;;;;;;;12.80;11.73;;;2.30;89.90;;;;;;4992665;28;20216;-90
2023/01/17 11:07:07;;;;;;;11.10;10.47;;;2.70;89.60;;;;;;4992535;28;20210;-91
2023/01/17 11:09:44;;;;;;;12.33;11.27;;;3.00;88.30;;;;;;4992935;28;20644;-90
2023/01/17 11:12:22;;;;;;;10.83;9.73;;;3.50;87.90;;;;;;4992674;28;20166;-90
2023/01/17 11:15:07;;;;;;;10.57;9.53;;;3.70;85.80;;;;;;4992783;28;20220;-90
2023/01/17 11:17:38;;;;;;;10.30;9.70;;;3.90;85.30;;;;;;4982276;28;20186;-90
2023/01/17 11:20:22;;;;;;;11.27;10.53;;;4.00;85.10;;;;;;4992384;28;20165;-88
2023/01/17 11:23:17;;;;;;;11.57;10.80;;;4.00;84.30;;;;;;4992155;28;20274;-87
2023/01/17 11:25:50;;;;;;;11.10;10.03;;;4.00;83.40;;;;;;4993386;28;20217;-88
2023/01/17 11:28:36;;;;;;;12.03;10.90;;;4.10;84.20;;;;;;4993416;28;20701;-89
2023/01/17 11:31:13;;;;;;;13.13;10.53;;;4.00;83.00;;;;;;4992470;28;20183;-89
2023/01/17 11:33:52;;;;;;;11.87;10.50;;;3.80;82.50;;;;;;4992066;28;20199;-89
2023/01/17 11:36:26;;;;;;;11.23;10.47;;;3.90;83.30;;;;;;4992169;28;20210;-89
2023/01/17 11:38:55;;;;;;;12.50;11.57;;;4.00;82.50;;;;;;4995564;28;20178;-89
2023/01/17 11:41:26;;;;;;;11.90;11.00;;;4.10;81.10;;;;;;4995984;28;20190;-89
2023/01/17 11:43:58;;;;;;;11.67;10.60;;;4.20;82.30;;;;;;4996788;28;20677;-88
2023/01/17 11:46:25;;;;;;;12.13;11.10;;;4.20;81.00;;;;;;4996051;28;20702;-88
2023/01/17 11:48:52;;;;;;;12.03;11.10;;;3.90;81.60;;;;;;4995591;28;20185;-88
2023/01/17 11:51:23;;;;;;;12.37;11.13;;;3.80;81.00;;;;;;4996971;28;20174;-87
2023/01/17 11:53:49;;;;;;;10.93;10.13;;;3.80;81.50;;;;;;4995413;28;20206;-88
2023/01/17 11:56:20;;;;;;;10.80;10.10;;;3.70;82.00;;;;;;4996531;28;20183;-89
2023/01/17 11:58:46;;;;;;;10.67;9.87;;;3.90;82.50;;;;;;4995342;28;20187;-89
2023/01/17 12:01:30;;;;;;;11.73;11.03;;;4.10;82.40;;;;;;4995295;28;20177;-89
2023/01/17 12:04:18;;;;;;;12.97;11.93;;;4.20;82.00;;;;;;4996392;28;20211;-88
2023/01/17 12:07:06;;;;;;;12.93;12.17;;;4.30;81.30;;;;;;4995088;28;20257;-88
2023/01/17 12:10:01;;;;;;;12.87;12.07;;;4.30;81.00;;;;;;4996376;28;20158;-88
2023/01/17 12:15:33;;;;;;;11.90;11.10;;;4.10;80.70;;;;;;4996267;28;20213;-86
2023/01/17 12:18:26;;;;;;;11.90;11.20;;;4.20;81.80;;;;;;4996379;28;20213;-88
2023/01/17 12:21:15;;;;;;;12.10;11.20;;;4.00;80.30;;;;;;4995044;28;20174;-89
2023/01/17 12:24:25;;;;;;;10.27;9.53;;;4.00;81.40;;;;;;4995095;28;20298;-89
2023/01/17 12:27:03;;;;;;;11.73;10.80;;;4.00;81.90;;;;;;4995499;28;20214;-87
2023/01/17 12:29:47;;;;;;;11.30;10.43;;;4.10;81.60;;;;;;4996582;28;20728;-87
2023/01/17 12:32:29;;;;;;;11.50;10.87;;;4.30;81.70;;;;;;4996583;28;20525;-87
2023/01/17 12:35:14;;;;;;;12.70;11.90;;;4.30;80.50;;;;;;4996572;28;20281;-86
2023/01/17 12:37:43;;;;;;;12.20;11.50;;;4.40;80.50;;;;;;4997686;28;20161;-86
2023/01/17 12:40:12;;;;;;;11.53;10.93;;;4.30;78.60;;;;;;4997399;28;20179;-86
2023/01/17 12:42:42;;;;;;;11.73;10.93;;;4.50;79.80;;;;;;4997353;28;20172;-86
2023/01/17 12:45:27;;;;;;;15.53;11.80;;;4.60;79.80;;;;;;4997258;28;20166;-86
2023/01/17 12:48:00;;;;;;;13.90;12.43;;;4.70;79.90;;;;;;4997084;28;20161;-86
2023/01/17 12:50:42;;;;;;;12.17;11.47;;;4.60;79.20;;;;;;4997022;28;20630;-86
2023/01/17 12:53:39;;;;;;;11.83;11.03;;;4.40;78.80;;;;;;4997626;28;20196;-86
2023/01/17 12:56:31;;;;;;;12.97;11.93;;;4.30;78.60;;;;;;4997426;28;20165;-86
2023/01/17 12:59:19;;;;;;;13.90;12.60;;;4.30;79.10;;;;;;4994422;28;20196;-87
2023/01/17 13:01:58;;;;;;;13.23;12.43;;;4.30;79.40;;;;;;4996983;28;20191;-87
2023/01/17 13:04:40;;;;;;;12.43;11.70;;;4.30;79.00;;;;;;4996774;28;20227;-86
2023/01/17 13:07:24;;;;;;;12.67;11.63;;;4.40;79.40;;;;;;4995155;28;20200;-87
2023/01/17 13:10:11;;;;;;;12.53;11.70;;;4.40;79.40;;;;;;4996576;28;20161;-87
2023/01/17 13:12:38;;;;;;;15.17;10.83;;;4.20;79.60;;;;;;4996374;28;20630;-86
2023/01/17 13:15:24;;;;;;;11.17;10.47;;;4.00;80.20;;;;;;4996558;28;20522;-87
2023/01/17 13:17:56;;;;;;;12.03;11.13;;;4.00;81.30;;;;;;4997061;28;20172;-86
2023/01/17 13:20:52;;;;;;;11.83;10.97;;;4.30;81.20;;;;;;4996406;28;20165;-86
2023/01/17 13:23:29;;;;;;;13.70;12.60;;;4.60;80.60;;;;;;4969202;28;20229;-87
2023/01/17 13:25:57;;;;;;;13.17;12.27;;;4.70;79.40;;;;;;4995307;28;20203;-86
2023/01/17 13:28:50;;;;;;;13.93;12.73;;;4.90;80.10;;;;;;4997347;28;20532;-86
2023/01/17 13:31:31;;;;;;;12.70;11.90;;;4.90;79.90;;;;;;4997309;28;20164;-86
2023/01/17 13:34:12;;;;;;;14.27;13.30;;;4.80;78.40;;;;;;4995324;28;20757;-86
2023/01/17 13:37:10;;;;;;;14.40;13.23;;;4.60;77.50;;;;;;4996562;28;20189;-86
2023/01/17 13:39:41;;;;;;;13.80;12.53;;;4.50;78.40;;;;;;4996924;28;20632;-86
2023/01/17 13:42:22;;;;;;;12.97;12.07;;;4.20;78.70;;;;;;4996760;28;20184;-86
2023/01/17 13:44:48;;;;;;;12.67;11.70;;;4.20;78.90;;;;;;4995333;28;20273;-86
2023/01/17 13:47:16;;;;;;;13.43;12.20;;;4.30;79.10;;;;;;4997424;28;20232;-86
2023/01/17 13:49:48;;;;;;;13.43;12.43;;;4.30;78.50;;;;;;4996947;28;20197;-86
2023/01/17 13:52:19;;;;;;;13.30;12.20;;;4.30;79.00;;;;;;4995325;28;20675;-86
2023/01/17 13:54:48;;;;;;;13.40;12.37;;;4.30;79.10;;;;;;4996774;28;20194;-86
2023/01/17 13:57:25;;;;;;;14.67;13.20;;;4.40;79.60;;;;;;4997032;28;20183;-86
2023/01/17 13:59:55;;;;;;;12.63;11.70;;;4.30;78.40;;;;;;4997118;28;20183;-87
2023/01/17 14:02:38;;;;;;;13.77;12.67;;;4.30;79.60;;;;;;4996719;28;20185;-87
2023/01/17 14:05:19;;;;;;;12.43;11.30;;;4.40;80.10;;;;;;4997138;28;20557;-87
2023/01/17 14:07:55;;;;;;;11.73;10.57;;;4.40;79.80;;;;;;4995513;28;20200;-87
2023/01/17 14:10:44;;;;;;;12.87;11.13;;;4.50;80.70;;;;;;4996692;28;20632;-86
2023/01/17 14:13:38;;;;;;;13.70;11.60;;;4.30;80.60;;;;;;4996976;28;20200;-87
2023/01/17 14:16:27;;;;;;;12.93;11.73;;;4.30;81.00;;;;;;4997430;28;20178;-87
2023/01/17 14:18:54;;;;;;;12.30;11.13;;;3.90;82.60;;;;;;4989569;28;20201;-86
2023/01/17 14:21:30;;;;;;;16.73;11.17;;;3.70;83.10;;;;;;4996854;28;20211;-87
2023/01/17 14:24:15;;;;;;;12.80;11.60;;;3.60;83.80;;;;;;4996873;28;20720;-86
2023/01/17 14:26:45;;;;;;;14.43;10.90;;;3.40;84.30;;;;;;4997058;28;20280;-87
2023/01/17 14:29:41;;;;;;;10.53;9.73;;;3.40;84.90;;;;;;4997371;28;20186;-86